createdAt,value
2023-01-04T00:04:42.297Z,66.24
2023-01-04T00:09:50.418Z,66.44
2023-01-04T00:14:58.107Z,66.56
2023-01-04T00:20:07.675Z,66.67
2023-01-04T00:25:15.882Z,66.73
2023-01-04T00:30:24.570Z,66.75
2023-01-04T00:35:45.835Z,66.72
2023-01-04T00:40:56.663Z,67.14
2023-01-04T00:46:05.817Z,67.48
2023-01-04T00:51:14.300Z,67.58
2023-01-04T00:56:21.864Z,67.91
2023-01-04T01:01:31.521Z,67.96
2023-01-04T01:06:39.075Z,67.90
2023-01-04T01:11:47.723Z,67.91
2023-01-04T01:16:58.036Z,67.82
2023-01-04T01:22:07.508Z,67.82
2023-01-04T01:27:15.891Z,67.84
2023-01-04T01:32:24.104Z,67.82
2023-01-04T01:37:32.235Z,67.76
2023-01-04T01:42:39.638Z,67.74
2023-01-04T01:47:50.547Z,67.71
2023-01-04T01:53:02.284Z,67.57
2023-01-04T01:58:15.570Z,67.50
2023-01-04T02:03:29.276Z,67.40
2023-01-04T02:08:38.951Z,67.29
2023-01-04T02:14:06.715Z,67.18
2023-01-04T02:19:45.120Z,67.05
2023-01-04T02:25:18.728Z,66.91
2023-01-04T02:31:12.788Z,66.77
2023-01-04T02:36:33.217Z,66.64
2023-01-04T02:41:49.198Z,66.50
2023-01-04T02:47:04.281Z,66.41
2023-01-04T02:52:14.268Z,66.35
2023-01-04T02:57:33.947Z,66.01
2023-01-04T03:03:26.396Z,66.13
2023-01-04T03:08:35.676Z,66.40
2023-01-04T03:13:46.969Z,66.60
2023-01-04T03:18:58.049Z,66.67
2023-01-04T03:24:26.247Z,66.72
2023-01-04T03:29:56.072Z,66.71
2023-01-04T03:35:23.515Z,66.66
2023-01-04T03:40:51.639Z,66.67
2023-01-04T03:46:24.237Z,66.61
2023-01-04T03:51:32.832Z,66.57
2023-01-04T03:56:43.564Z,66.64
2023-01-04T04:01:52.625Z,66.68
2023-01-04T04:07:17.530Z,66.72
2023-01-04T04:12:26.909Z,66.72
2023-01-04T04:17:35.615Z,66.70
2023-01-04T04:22:44.263Z,66.63
2023-01-04T04:27:51.980Z,66.62
2023-01-04T04:33:00.831Z,66.60
2023-01-04T04:38:08.395Z,66.64
2023-01-04T04:43:16.656Z,66.71
2023-01-04T04:48:24.885Z,66.78
2023-01-04T04:53:33.091Z,66.83
2023-01-04T04:58:40.925Z,66.84
2023-01-04T05:03:49.311Z,66.85
2023-01-04T05:08:57.573Z,66.86
2023-01-04T05:14:06.061Z,66.72
2023-01-04T05:19:14.612Z,66.46
2023-01-04T05:24:22.072Z,66.19
2023-01-04T05:29:47.476Z,66.09
2023-01-04T05:34:56.213Z,66.10
2023-01-04T05:40:04.852Z,66.18
2023-01-04T05:45:13.640Z,66.27
2023-01-04T05:50:23.945Z,66.34
2023-01-04T05:55:33.487Z,66.32
2023-01-04T06:00:41.966Z,66.26
2023-01-04T06:05:53.127Z,66.17
2023-01-04T06:11:01.797Z,66.18
2023-01-04T06:16:10.050Z,66.16
2023-01-04T06:21:18.464Z,66.12
2023-01-04T06:26:26.844Z,66.07
2023-01-04T06:31:35.308Z,65.94
2023-01-04T06:36:44.112Z,65.74
2023-01-04T06:41:52.514Z,65.63
2023-01-04T06:47:01.109Z,65.60
2023-01-04T06:52:09.737Z,65.65
2023-01-04T06:57:17.993Z,65.74
2023-01-04T07:02:27.122Z,65.81
2023-01-04T07:07:36.303Z,65.88
2023-01-04T07:12:43.640Z,65.94
2023-01-04T07:17:52.875Z,66.06
2023-01-04T07:23:01.477Z,66.01
2023-01-04T07:28:10.757Z,65.79
2023-01-04T07:33:19.059Z,65.50
2023-01-04T07:38:27.825Z,65.37
2023-01-04T07:43:36.086Z,65.42
2023-01-04T07:48:45.107Z,65.49
2023-01-04T07:53:53.840Z,65.63
2023-01-04T07:59:03.385Z,65.55
2023-01-04T08:04:14.031Z,65.45
2023-01-04T08:09:22.661Z,65.52
2023-01-04T08:14:31.209Z,65.62
2023-01-04T08:19:39.478Z,65.65
2023-01-04T08:24:47.752Z,66.00
2023-01-04T08:29:56.100Z,65.82
2023-01-04T08:35:04.717Z,65.63
2023-01-04T08:40:15.247Z,65.49
2023-01-04T08:45:23.558Z,65.07
2023-01-04T08:50:31.927Z,65.18
2023-01-04T08:55:40.471Z,65.35
2023-01-04T09:06:21.150Z,65.56
2023-01-04T09:11:29.373Z,65.57
2023-01-04T09:16:37.724Z,65.59
2023-01-04T09:21:45.548Z,65.57
2023-01-04T09:26:53.451Z,65.56
2023-01-04T09:32:01.434Z,65.61
2023-01-04T09:37:09.066Z,65.74
2023-01-04T09:42:24.772Z,65.80
2023-01-04T09:47:38.693Z,65.78
2023-01-04T09:52:53.198Z,65.70
2023-01-04T09:58:06.020Z,65.59
2023-01-04T10:03:20.281Z,65.59
2023-01-04T10:08:28.204Z,65.56
2023-01-04T10:13:54.397Z,65.42
2023-01-04T10:19:59.864Z,65.30
2023-01-04T10:24:56.266Z,65.19
2023-01-04T10:30:18.912Z,65.11
2023-01-04T10:35:28.207Z,65.03
2023-01-04T10:40:40.298Z,64.91
2023-01-04T10:45:56.618Z,64.80
2023-01-04T10:51:10.306Z,64.78
2023-01-04T10:56:27.605Z,64.73
2023-01-04T11:01:41.657Z,64.63
2023-01-04T11:06:56.484Z,64.51
2023-01-04T11:12:04.860Z,64.48
2023-01-04T11:17:14.898Z,64.43
2023-01-04T11:22:28.772Z,64.44
2023-01-04T11:27:50.562Z,64.47
2023-01-04T11:33:03.660Z,64.49
2023-01-04T11:38:19.597Z,64.49
2023-01-04T11:43:28.611Z,64.58
2023-01-04T11:48:39.738Z,64.61
2023-01-04T11:53:47.560Z,64.62
2023-01-04T11:59:17.735Z,64.71
2023-01-04T12:04:35.521Z,64.82
2023-01-04T12:09:43.643Z,64.92
2023-01-04T12:14:52.772Z,64.99
2023-01-04T12:20:03.429Z,65.02
2023-01-04T12:25:24.298Z,65.10
2023-01-04T12:30:48.384Z,65.13
2023-01-04T12:36:06.954Z,65.19
2023-01-04T12:41:15.060Z,65.22
2023-01-04T12:47:01.894Z,65.24
2023-01-04T12:53:02.324Z,65.26
2023-01-04T13:04:43.529Z,65.26
2023-01-04T13:10:00.817Z,65.24
2023-01-04T13:15:19.488Z,65.22
2023-01-04T13:20:31.183Z,65.15
2023-01-04T13:25:38.911Z,65.15
2023-01-04T13:30:48.233Z,65.17
2023-01-04T13:36:06.308Z,65.12
2023-01-04T13:41:23.852Z,65.09
2023-01-04T13:46:32.985Z,65.06
2023-01-04T13:51:40.698Z,65.08
2023-01-04T13:56:55.139Z,65.06
2023-01-04T14:02:03.751Z,65.06
2023-01-04T14:07:12.029Z,65.09
2023-01-04T14:12:21.771Z,65.09
2023-01-04T14:17:40.505Z,65.15
2023-01-04T14:22:57.907Z,65.23
2023-01-04T14:28:36.184Z,65.30
2023-01-04T14:33:46.797Z,65.36
2023-01-04T14:39:00.444Z,65.38
2023-01-04T14:44:21.424Z,65.45
2023-01-04T14:49:30.290Z,65.51
2023-01-04T14:54:39.604Z,65.58
2023-01-04T14:59:48.160Z,65.65
2023-01-04T15:04:56.491Z,65.76
2023-01-04T15:10:05.520Z,65.88
2023-01-04T15:15:15.797Z,66.07
2023-01-04T15:20:24.577Z,66.09
2023-01-04T15:25:33.395Z,66.22
2023-01-04T15:30:45.200Z,66.39
2023-01-04T15:36:02.295Z,66.55
2023-01-04T15:41:38.897Z,66.77
2023-01-04T15:46:47.287Z,66.95
2023-01-04T15:51:55.666Z,67.09
2023-01-04T15:57:04.301Z,67.24
2023-01-04T16:02:14.511Z,67.39
2023-01-04T16:07:22.828Z,67.57
2023-01-04T16:12:47.634Z,67.73
2023-01-04T16:17:58.571Z,67.91
2023-01-04T16:23:06.701Z,68.18
2023-01-04T16:28:15.800Z,68.39
2023-01-04T16:33:24.626Z,68.63
2023-01-04T16:38:32.896Z,68.78
2023-01-04T16:43:47.803Z,68.96
2023-01-04T16:48:58.372Z,68.99
2023-01-04T16:54:09.201Z,69.06
2023-01-04T16:59:20.812Z,69.38
2023-01-04T17:04:30.914Z,69.54
2023-01-04T17:09:41.727Z,69.55
2023-01-04T17:15:15.156Z,69.64
2023-01-04T17:20:21.624Z,69.76
2023-01-04T17:25:30.272Z,70.04
2023-01-04T17:30:41.675Z,70.18
2023-01-04T17:35:50.009Z,70.26
2023-01-04T17:40:58.633Z,70.60
2023-01-04T17:46:09.479Z,70.84
2023-01-04T17:51:20.722Z,71.25
2023-01-04T17:56:29.511Z,71.58
2023-01-04T18:01:38.151Z,71.75
2023-01-04T18:06:47.071Z,72.09
2023-01-04T18:11:55.346Z,72.32
2023-01-04T18:17:03.580Z,72.60
2023-01-04T18:22:12.826Z,72.88
2023-01-04T18:27:23.586Z,73.00
2023-01-04T18:32:33.217Z,73.26
2023-01-04T18:37:40.760Z,73.45
2023-01-04T18:42:52.044Z,73.69
2023-01-04T18:48:00.690Z,73.86
2023-01-04T18:53:10.607Z,73.95
2023-01-04T18:58:19.656Z,74.08
2023-01-04T19:03:29.473Z,74.13
2023-01-04T19:08:38.607Z,74.18
2023-01-04T19:13:47.244Z,74.21
2023-01-04T19:18:55.938Z,74.27
2023-01-04T19:24:04.672Z,74.32
2023-01-04T19:29:13.785Z,74.40
2023-01-04T19:34:21.327Z,74.44
2023-01-04T19:39:31.059Z,74.41
2023-01-04T19:44:40.362Z,74.53
2023-01-04T19:49:49.326Z,74.58
2023-01-04T19:54:56.879Z,74.60
2023-01-04T20:00:06.148Z,74.67
2023-01-04T20:05:15.073Z,74.70
2023-01-04T20:10:23.870Z,74.78
2023-01-04T20:15:32.409Z,74.89
2023-01-04T20:20:42.341Z,74.99
2023-01-04T20:25:55.682Z,75.04
2023-01-04T20:31:09.260Z,75.19
2023-01-04T20:36:20.818Z,75.37
2023-01-04T20:41:32.182Z,75.48
2023-01-04T20:46:46.355Z,75.49
2023-01-04T20:51:56.788Z,75.66
2023-01-04T20:57:05.452Z,75.84
2023-01-04T21:02:15.448Z,76.09
2023-01-04T21:07:23.979Z,76.14
2023-01-04T21:12:33.347Z,76.36
2023-01-04T21:17:42.430Z,76.50
2023-01-04T21:22:51.412Z,76.68
2023-01-04T21:28:01.357Z,76.83
2023-01-04T21:33:10.216Z,76.93
2023-01-04T21:38:18.670Z,77.07
2023-01-04T21:43:26.990Z,77.19
2023-01-04T21:48:35.607Z,77.45
2023-01-04T21:53:44.453Z,77.49
2023-01-04T21:58:52.512Z,77.55
2023-01-04T22:04:01.173Z,77.58
2023-01-04T22:09:09.636Z,77.55
2023-01-04T22:14:17.660Z,77.51
2023-01-04T22:19:26.337Z,77.44
2023-01-04T22:24:37.795Z,77.32
2023-01-04T22:29:47.567Z,77.28
2023-01-04T22:34:55.921Z,77.30
2023-01-04T22:40:04.424Z,77.16
2023-01-04T22:45:13.841Z,77.20
2023-01-04T22:50:22.254Z,77.10
2023-01-04T22:55:45.762Z,77.03
2023-01-04T23:00:59.392Z,76.98
2023-01-04T23:06:11.576Z,76.87
2023-01-04T23:11:22.347Z,76.65
2023-01-04T23:16:32.958Z,76.36
2023-01-04T23:21:41.277Z,76.80
2023-01-04T23:26:49.751Z,76.77
2023-01-04T23:31:59.890Z,78.45
2023-01-04T23:37:08.631Z,78.41
2023-01-04T23:42:15.721Z,78.01
2023-01-04T23:47:23.925Z,77.63
2023-01-04T23:52:32.393Z,77.28
2023-01-04T23:57:41.086Z,76.98
